Time;durP1;ratioP1;P1;durP2;ratioP2;P2;SDS_P1;SDS_P2;PMS_P1;PMS_P2;Temp;Humidity;BMP_temperature;BMP_pressure;BME280_temperature;BME280_humidity;BME280_pressure;Samples;Min_cycle;Max_cycle;Signal;HPM_P1;HPM_P2
2023/11/20 00:00:42;;;;;;;30.27;5.20;;;11.60;99.90;;;;;;5003237;28;20054;-73
2023/11/20 00:03:07;;;;;;;30.58;5.00;;;11.60;99.90;;;;;;5015202;28;20052;-73
2023/11/20 00:05:35;;;;;;;32.85;5.10;;;11.60;99.90;;;;;;4993528;28;20038;-71
2023/11/20 00:08:03;;;;;;;17.88;3.83;;;11.60;99.90;;;;;;4982661;28;20053;-72
2023/11/20 00:10:32;;;;;;;23.80;3.90;;;11.60;99.90;;;;;;4992903;28;20034;-73
2023/11/20 00:12:57;;;;;;;27.92;4.45;;;11.60;99.90;;;;;;5006781;28;20073;-73
2023/11/20 00:15:23;;;;;;;23.45;4.20;;;11.60;99.90;;;;;;5012225;28;20081;-72
2023/11/20 00:17:48;;;;;;;28.20;4.13;;;11.90;99.90;;;;;;5011519;28;20045;-73
2023/11/20 00:20:14;;;;;;;22.38;4.88;;;11.60;99.90;;;;;;4989460;28;20042;-72
2023/11/20 00:22:41;;;;;;;28.33;4.25;;;11.60;99.90;;;;;;5010680;28;20089;-72
2023/11/20 00:25:09;;;;;;;24.27;4.03;;;11.60;99.90;;;;;;5014343;28;20040;-72
2023/11/20 00:27:35;;;;;;;33.22;4.28;;;11.50;99.90;;;;;;4994929;28;20085;-72
2023/11/20 00:30:00;;;;;;;18.20;4.53;;;11.50;99.90;;;;;;5009638;28;20065;-72
2023/11/20 00:32:28;;;;;;;28.58;4.75;;;11.50;99.90;;;;;;4991651;28;20038;-73
2023/11/20 00:34:54;;;;;;;23.17;4.10;;;11.50;99.90;;;;;;5002970;28;20046;-72
2023/11/20 00:37:19;;;;;;;22.95;4.15;;;11.50;99.90;;;;;;4996156;28;20513;-73
2023/11/20 00:39:45;;;;;;;20.00;3.53;;;11.50;99.90;;;;;;5003685;28;20034;-73
2023/11/20 00:42:11;;;;;;;16.85;3.35;;;11.60;99.90;;;;;;5021361;28;20060;-73
2023/11/20 00:44:36;;;;;;;15.18;4.00;;;11.60;99.90;;;;;;5015909;28;20034;-72
2023/11/20 00:47:02;;;;;;;10.55;2.70;;;11.60;99.90;;;;;;5013509;28;20172;-72
2023/11/20 00:49:28;;;;;;;15.00;3.55;;;11.60;99.90;;;;;;4996597;28;20357;-72
2023/11/20 00:51:54;;;;;;;15.65;3.30;;;11.60;99.90;;;;;;5003105;28;20734;-72
2023/11/20 00:54:19;;;;;;;14.93;3.40;;;11.60;99.90;;;;;;4976567;28;20454;-72
2023/11/20 00:56:45;;;;;;;15.48;3.78;;;11.50;99.90;;;;;;5011618;28;20160;-72
2023/11/20 00:59:10;;;;;;;22.10;4.45;;;11.60;99.90;;;;;;5012878;28;20487;-73
2023/11/20 01:01:39;;;;;;;23.75;4.32;;;11.60;99.90;;;;;;4994479;28;20049;-72
2023/11/20 01:04:05;;;;;;;16.48;3.63;;;11.50;99.90;;;;;;4994587;28;20052;-72
2023/11/20 01:06:30;;;;;;;17.83;3.90;;;11.50;99.90;;;;;;5011676;28;20714;-72
2023/11/20 01:08:56;;;;;;;15.63;3.58;;;11.50;99.90;;;;;;4995754;28;20042;-72
2023/11/20 01:11:21;;;;;;;16.98;3.17;;;11.60;99.90;;;;;;5001974;28;20041;-72
2023/11/20 01:13:47;;;;;;;12.60;2.97;;;11.50;99.90;;;;;;4993456;28;20081;-72
2023/11/20 01:16:12;;;;;;;14.32;3.75;;;11.60;99.90;;;;;;5002689;28;20042;-72
2023/11/20 01:18:38;;;;;;;14.43;3.33;;;11.60;99.90;;;;;;4990447;28;20372;-72
2023/11/20 01:21:04;;;;;;;13.65;3.28;;;11.50;99.90;;;;;;5005636;28;20038;-72
2023/11/20 01:23:32;;;;;;;16.70;4.35;;;11.50;99.90;;;;;;5008952;28;20068;-72
2023/11/20 01:25:58;;;;;;;15.65;3.67;;;11.50;99.90;;;;;;5009021;28;20049;-72
2023/11/20 01:28:26;;;;;;;19.88;3.95;;;11.50;99.90;;;;;;5012602;28;20414;-72
2023/11/20 01:30:52;;;;;;;16.45;3.15;;;11.50;99.90;;;;;;4979176;28;20045;-72
2023/11/20 01:33:17;;;;;;;17.63;3.50;;;11.50;99.90;;;;;;4990206;28;20134;-72
2023/11/20 01:35:43;;;;;;;16.67;3.45;;;11.50;99.90;;;;;;5009709;28;20153;-72
2023/11/20 01:38:08;;;;;;;14.25;3.17;;;11.50;99.90;;;;;;4994612;28;20042;-72
2023/11/20 01:40:34;;;;;;;12.32;3.50;;;11.50;99.90;;;;;;4998076;28;20469;-72
2023/11/20 01:43:01;;;;;;;12.73;3.88;;;11.50;99.90;;;;;;5013637;28;20048;-72
2023/11/20 01:45:27;;;;;;;10.63;2.83;;;11.50;99.90;;;;;;4979894;28;20447;-72
2023/11/20 01:47:52;;;;;;;11.02;3.08;;;11.50;99.90;;;;;;5012850;28;20113;-72
2023/11/20 01:50:19;;;;;;;13.48;3.53;;;11.60;99.90;;;;;;4994115;28;20498;-72
2023/11/20 01:52:47;;;;;;;9.82;2.40;;;11.50;99.90;;;;;;4999084;28;20116;-72
2023/11/20 01:55:14;;;;;;;7.97;2.45;;;11.50;99.90;;;;;;4988974;28;20052;-72
2023/11/20 01:57:44;;;;;;;11.02;2.70;;;11.50;99.90;;;;;;4992787;28;20045;-73
2023/11/20 02:00:14;;;;;;;17.38;3.22;;;11.50;99.90;;;;;;5011530;28;20104;-72
2023/11/20 02:02:42;;;;;;;13.80;3.88;;;11.50;99.90;;;;;;5010965;28;20037;-72
2023/11/20 02:05:09;;;;;;;10.90;3.33;;;11.50;99.90;;;;;;5009098;28;20042;-72
2023/11/20 02:07:38;;;;;;;19.13;3.95;;;11.50;99.90;;;;;;4994160;28;20113;-72
2023/11/20 02:10:05;;;;;;;18.15;4.60;;;11.50;99.90;;;;;;5001482;28;20073;-72
2023/11/20 02:12:31;;;;;;;16.95;3.80;;;11.50;99.90;;;;;;4998023;28;20491;-72
2023/11/20 02:14:57;;;;;;;15.02;3.28;;;11.50;99.90;;;;;;5005471;28;20111;-72
2023/11/20 02:17:25;;;;;;;17.48;3.60;;;11.50;99.90;;;;;;4978389;28;20504;-72
2023/11/20 02:19:52;;;;;;;18.02;3.35;;;11.50;99.90;;;;;;5010807;28;20151;-73
2023/11/20 02:22:17;;;;;;;14.98;3.38;;;11.50;99.90;;;;;;5011093;28;21139;-72
2023/11/20 02:24:46;;;;;;;17.30;3.60;;;11.50;99.90;;;;;;4993096;28;20049;-73
2023/11/20 02:27:43;;;;;;;12.73;2.90;;;11.40;99.90;;;;;;5014674;28;20050;-73
2023/11/20 02:30:10;;;;;;;18.08;3.03;;;11.40;99.90;;;;;;4984180;28;20490;-72
2023/11/20 02:32:36;;;;;;;16.90;2.90;;;11.40;99.90;;;;;;4994126;28;20379;-72
2023/11/20 02:35:02;;;;;;;12.00;2.38;;;11.40;99.90;;;;;;4993148;28;20053;-73
2023/11/20 02:37:30;;;;;;;12.23;2.80;;;11.40;99.90;;;;;;4990229;28;20054;-72
2023/11/20 02:39:55;;;;;;;11.63;2.50;;;11.40;99.90;;;;;;5010567;28;20499;-72
2023/11/20 02:42:21;;;;;;;10.75;2.70;;;11.40;99.90;;;;;;5012958;28;20038;-72
2023/11/20 02:44:48;;;;;;;13.00;3.05;;;11.40;99.90;;;;;;5010313;28;20537;-73
2023/11/20 02:47:15;;;;;;;11.57;3.47;;;11.40;99.90;;;;;;4994601;28;20105;-72
2023/11/20 02:49:41;;;;;;;11.32;2.90;;;11.40;99.90;;;;;;4994112;28;20073;-72
2023/11/20 02:52:07;;;;;;;15.52;3.50;;;11.30;99.90;;;;;;5010747;28;20085;-72
2023/11/20 02:54:35;;;;;;;10.80;3.10;;;11.30;99.90;;;;;;4984249;28;20050;-72
2023/11/20 02:57:01;;;;;;;14.82;3.75;;;11.30;99.90;;;;;;4993064;28;20073;-72
2023/11/20 02:59:28;;;;;;;11.77;3.25;;;11.40;99.90;;;;;;5012372;28;20065;-72
2023/11/20 03:01:57;;;;;;;7.88;3.08;;;11.30;99.90;;;;;;4978651;28;20042;-72
2023/11/20 03:04:26;;;;;;;11.30;3.35;;;11.40;99.90;;;;;;4993353;28;20384;-72
2023/11/20 03:06:51;;;;;;;12.20;3.50;;;11.60;99.90;;;;;;4994303;28;20072;-72
2023/11/20 03:09:17;;;;;;;10.00;2.90;;;11.40;99.90;;;;;;5010944;28;20077;-72
2023/11/20 03:11:43;;;;;;;10.85;2.95;;;11.40;99.90;;;;;;4993278;28;20045;-72
2023/11/20 03:14:08;;;;;;;16.98;2.70;;;11.40;99.90;;;;;;5010752;28;20046;-72
2023/11/20 03:16:34;;;;;;;14.32;2.78;;;11.40;99.90;;;;;;5005646;28;20114;-72
2023/11/20 03:19:05;;;;;;;13.88;2.97;;;11.40;99.90;;;;;;5003410;28;20041;-72
2023/11/20 03:21:33;;;;;;;8.07;2.47;;;11.40;99.90;;;;;;5010008;28;20042;-73
2023/11/20 03:23:59;;;;;;;9.18;2.28;;;11.40;99.90;;;;;;5011221;28;20419;-73
2023/11/20 03:26:26;;;;;;;9.52;2.67;;;11.40;99.90;;;;;;5014197;28;20034;-73
2023/11/20 03:28:52;;;;;;;13.73;3.00;;;11.30;99.90;;;;;;4997474;28;20084;-72
2023/11/20 03:31:18;;;;;;;10.90;3.10;;;11.30;99.90;;;;;;5013831;28;20041;-72
2023/11/20 03:33:46;;;;;;;11.82;3.08;;;11.30;99.90;;;;;;4996105;28;20045;-72
2023/11/20 03:36:13;;;;;;;8.88;3.05;;;11.70;99.90;;;;;;4997442;28;20627;-72
2023/11/20 03:38:45;;;;;;;7.10;2.75;;;11.30;99.90;;;;;;4998596;28;20080;-72
2023/11/20 03:41:11;;;;;;;9.88;2.78;;;11.30;99.90;;;;;;5014613;28;20491;-72
2023/11/20 03:43:39;;;;;;;7.85;2.45;;;11.30;99.90;;;;;;5016990;28;20079;-72
2023/11/20 03:46:05;;;;;;;9.27;2.45;;;11.30;99.90;;;;;;4997040;28;20056;-72
2023/11/20 03:48:30;;;;;;;8.70;2.78;;;11.30;99.90;;;;;;4996126;28;20129;-73
2023/11/20 03:50:56;;;;;;;9.18;3.10;;;11.30;99.90;;;;;;5001977;28;20117;-72
2023/11/20 03:53:22;;;;;;;14.27;2.60;;;11.30;99.90;;;;;;5013977;28;20050;-72
2023/11/20 03:55:47;;;;;;;11.35;2.70;;;11.30;99.90;;;;;;4996216;28;20066;-72
2023/11/20 03:58:13;;;;;;;14.45;3.33;;;11.30;99.90;;;;;;5014550;28;20033;-73
2023/11/20 04:00:38;;;;;;;13.50;3.53;;;11.30;99.90;;;;;;4995975;28;20041;-72
2023/11/20 04:03:06;;;;;;;15.32;3.30;;;11.30;99.90;;;;;;5014556;28;20442;-72
2023/11/20 04:05:37;;;;;;;18.30;3.65;;;11.30;99.90;;;;;;4997130;28;20074;-72
2023/11/20 04:08:02;;;;;;;18.95;4.30;;;11.30;99.90;;;;;;5010118;28;20033;-72
2023/11/20 04:10:28;;;;;;;18.58;4.70;;;11.30;99.90;;;;;;4999895;28;20564;-73
2023/11/20 04:12:59;;;;;;;19.13;4.78;;;11.30;99.90;;;;;;4982707;28;20430;-73
2023/11/20 04:15:29;;;;;;;26.70;5.13;;;11.30;99.90;;;;;;4994865;28;20053;-72
2023/11/20 04:17:58;;;;;;;27.95;4.88;;;11.20;99.90;;;;;;4995656;28;20054;-72
2023/11/20 04:20:23;;;;;;;24.35;4.95;;;11.80;99.90;;;;;;5014495;28;20401;-72
2023/11/20 04:22:49;;;;;;;22.40;5.05;;;11.30;99.90;;;;;;4994969;28;20048;-72
2023/11/20 04:25:15;;;;;;;28.20;5.63;;;11.30;99.90;;;;;;5013839;28;20442;-73
2023/11/20 04:27:41;;;;;;;21.38;5.53;;;11.20;99.90;;;;;;5011962;28;20153;-72
2023/11/20 04:30:11;;;;;;;27.30;6.15;;;11.20;99.90;;;;;;5014988;28;20062;-72
2023/11/20 04:32:39;;;;;;;27.98;6.20;;;11.20;99.90;;;;;;4993048;28;20073;-73
2023/11/20 04:35:05;;;;;;;27.63;6.18;;;11.20;99.90;;;;;;5012422;28;20127;-72
2023/11/20 04:37:30;;;;;;;25.67;5.82;;;11.20;99.90;;;;;;4994937;28;20045;-74
2023/11/20 04:39:56;;;;;;;29.80;5.57;;;11.20;99.90;;;;;;5012616;28;20041;-72
2023/11/20 04:42:25;;;;;;;21.35;4.75;;;11.20;99.90;;;;;;4979935;28;20042;-73
2023/11/20 04:44:50;;;;;;;24.35;5.05;;;11.20;99.90;;;;;;5014490;28;20517;-74
2023/11/20 04:47:16;;;;;;;19.20;4.43;;;11.20;99.90;;;;;;4997306;28;20046;-72
2023/11/20 04:49:42;;;;;;;27.50;4.53;;;11.20;99.90;;;;;;4992991;28;20049;-73
2023/11/20 04:52:07;;;;;;;21.98;4.38;;;11.20;99.90;;;;;;5013155;28;20120;-72
2023/11/20 04:54:34;;;;;;;16.30;3.97;;;11.20;99.90;;;;;;4996598;28;20049;-73
2023/11/20 04:57:00;;;;;;;15.23;3.90;;;11.10;99.90;;;;;;5008419;28;20097;-73
2023/11/20 04:59:27;;;;;;;16.92;3.60;;;11.20;99.90;;;;;;4996918;28;20144;-73
2023/11/20 05:01:53;;;;;;;19.70;3.55;;;11.10;99.90;;;;;;5013236;28;21124;-73
2023/11/20 05:04:25;;;;;;;15.88;2.95;;;11.70;99.90;;;;;;4996013;28;20045;-73
2023/11/20 05:06:50;;;;;;;15.00;3.33;;;11.10;99.90;;;;;;5015239;28;20046;-72
2023/11/20 05:09:17;;;;;;;14.43;3.63;;;11.10;99.90;;;;;;4996058;28;20042;-73
2023/11/20 05:11:45;;;;;;;20.60;4.10;;;11.10;99.90;;;;;;4979247;28;20048;-72
2023/11/20 05:14:11;;;;;;;11.95;3.83;;;11.10;99.90;;;;;;5014349;28;20054;-72
2023/11/20 05:16:36;;;;;;;12.73;3.42;;;11.10;99.90;;;;;;4998666;28;20081;-73
2023/11/20 05:19:02;;;;;;;12.27;3.58;;;11.10;99.90;;;;;;4980154;28;20498;-72
2023/11/20 05:21:28;;;;;;;12.20;3.10;;;11.10;99.90;;;;;;4993088;28;20562;-72
2023/11/20 05:23:53;;;;;;;14.73;3.95;;;11.10;99.90;;;;;;4994382;28;20048;-72
2023/11/20 05:26:19;;;;;;;18.05;4.10;;;11.00;99.90;;;;;;4997653;28;20046;-73
2023/11/20 05:28:46;;;;;;;13.02;3.55;;;11.00;99.90;;;;;;4994782;28;20503;-73
2023/11/20 05:31:12;;;;;;;13.35;3.50;;;11.00;99.90;;;;;;5013243;28;20073;-73
2023/11/20 05:33:37;;;;;;;14.55;3.58;;;11.00;99.90;;;;;;4995887;28;20069;-72
2023/11/20 05:36:03;;;;;;;15.15;3.67;;;11.00;99.90;;;;;;4997476;28;20546;-72
2023/11/20 05:38:33;;;;;;;10.95;3.20;;;10.90;99.90;;;;;;5015038;28;20073;-72
2023/11/20 05:40:59;;;;;;;14.93;3.22;;;10.90;99.90;;;;;;5008027;28;20120;-73
2023/11/20 05:43:24;;;;;;;14.70;3.10;;;10.90;99.90;;;;;;4988399;28;20464;-73
2023/11/20 05:45:50;;;;;;;12.05;2.88;;;10.90;99.90;;;;;;5012358;28;20087;-73
2023/11/20 05:48:15;;;;;;;13.68;3.45;;;10.90;99.90;;;;;;4994240;28;20073;-73
2023/11/20 05:50:41;;;;;;;13.98;3.60;;;10.90;99.90;;;;;;4993436;28;20854;-72
2023/11/20 05:53:07;;;;;;;17.65;3.60;;;10.80;99.90;;;;;;5012805;28;20085;-71
2023/11/20 05:55:32;;;;;;;13.50;3.63;;;10.80;99.90;;;;;;5012084;28;20162;-72
2023/11/20 05:57:59;;;;;;;15.60;3.88;;;10.80;99.90;;;;;;5012288;28;20057;-73
2023/11/20 06:00:26;;;;;;;14.77;3.45;;;10.80;99.90;;;;;;5012734;28;20045;-72
2023/11/20 06:02:52;;;;;;;12.55;2.85;;;10.80;99.90;;;;;;4978101;28;20042;-73
2023/11/20 06:05:18;;;;;;;14.50;3.13;;;10.80;99.90;;;;;;5012856;28;20065;-72
2023/11/20 06:07:44;;;;;;;7.90;2.53;;;10.80;99.90;;;;;;5016403;28;20034;-73
2023/11/20 06:10:10;;;;;;;11.98;2.97;;;10.80;99.90;;;;;;5006975;28;20255;-72
2023/11/20 06:12:36;;;;;;;11.68;3.50;;;10.80;99.90;;;;;;5012783;28;20042;-72
2023/11/20 06:15:05;;;;;;;12.35;3.50;;;10.80;99.90;;;;;;5012007;28;20045;-72
2023/11/20 06:17:31;;;;;;;9.60;3.55;;;10.80;99.90;;;;;;5012594;28;20148;-72
2023/11/20 06:19:57;;;;;;;10.02;3.00;;;10.80;99.90;;;;;;4993966;28;20674;-72
2023/11/20 06:22:27;;;;;;;10.25;3.58;;;10.80;99.90;;;;;;4993573;28;20042;-72
2023/11/20 06:24:56;;;;;;;9.20;3.10;;;10.80;99.90;;;;;;4998112;28;20037;-72
2023/11/20 06:27:21;;;;;;;14.75;3.20;;;10.80;99.90;;;;;;5009286;28;20073;-72
2023/11/20 06:29:47;;;;;;;10.43;3.28;;;10.80;99.90;;;;;;5013096;28;20068;-72
2023/11/20 06:32:13;;;;;;;11.45;3.05;;;10.70;99.90;;;;;;5020953;28;20092;-72
2023/11/20 06:34:39;;;;;;;16.60;3.70;;;10.70;99.90;;;;;;4990963;28;20042;-72
2023/11/20 06:37:04;;;;;;;11.90;3.13;;;10.70;99.90;;;;;;5010414;28;20041;-72
2023/11/20 06:39:30;;;;;;;15.55;3.00;;;10.70;99.90;;;;;;4977833;28;20113;-72
2023/11/20 06:41:56;;;;;;;16.58;4.32;;;10.70;99.90;;;;;;5011984;28;20034;-72
2023/11/20 06:44:21;;;;;;;15.35;3.40;;;10.70;99.90;;;;;;5009954;28;20045;-72
2023/11/20 06:46:47;;;;;;;17.00;3.60;;;10.70;99.90;;;;;;4987784;28;20406;-72
2023/11/20 06:49:12;;;;;;;18.48;3.47;;;10.70;99.90;;;;;;4992095;28;20045;-72
2023/11/20 06:51:38;;;;;;;19.38;4.00;;;10.60;99.90;;;;;;5010913;28;20140;-72
2023/11/20 06:54:04;;;;;;;23.40;3.97;;;10.60;99.90;;;;;;4978300;28;20042;-72
2023/11/20 06:56:31;;;;;;;20.70;4.70;;;10.60;99.90;;;;;;4995170;28;20037;-72
2023/11/20 06:58:57;;;;;;;25.02;4.10;;;10.60;99.90;;;;;;5012227;28;20034;-73
2023/11/20 07:01:27;;;;;;;24.10;3.88;;;10.60;99.90;;;;;;5013980;28;20041;-73
2023/11/20 07:03:55;;;;;;;26.25;4.03;;;10.50;99.90;;;;;;4986106;28;20053;-73
2023/11/20 07:06:21;;;;;;;29.67;5.47;;;10.60;99.90;;;;;;4960642;28;20574;-72
2023/11/20 07:08:48;;;;;;;18.80;3.92;;;10.60;99.90;;;;;;4977131;28;20085;-73
2023/11/20 07:11:14;;;;;;;25.05;4.75;;;10.60;99.90;;;;;;4978392;28;20074;-72
2023/11/20 07:13:40;;;;;;;23.65;3.78;;;10.60;99.90;;;;;;4977625;28;20050;-73
2023/11/20 07:16:08;;;;;;;26.05;4.00;;;10.60;99.90;;;;;;4995495;28;20121;-73
2023/11/20 07:18:34;;;;;;;21.13;4.18;;;10.60;99.90;;;;;;4992663;28;20039;-73
2023/11/20 07:20:59;;;;;;;28.27;4.65;;;10.60;99.90;;;;;;4978403;28;20057;-73
2023/11/20 07:23:25;;;;;;;21.60;4.25;;;10.50;99.90;;;;;;4975775;28;20042;-75
2023/11/20 07:25:53;;;;;;;25.85;4.80;;;10.50;99.90;;;;;;4994413;28;20035;-72
2023/11/20 07:28:20;;;;;;;26.65;4.70;;;10.60;99.90;;;;;;4972011;28;20050;-73
2023/11/20 07:30:46;;;;;;;24.10;3.92;;;10.60;99.90;;;;;;4986651;28;20114;-73
2023/11/20 07:33:13;;;;;;;25.08;3.60;;;10.50;99.90;;;;;;4995219;28;20061;-73
2023/11/20 07:35:39;;;;;;;21.65;4.22;;;10.60;99.90;;;;;;4996005;28;20053;-73
2023/11/20 07:38:05;;;;;;;25.33;4.03;;;10.60;99.90;;;;;;4983685;28;20408;-72
2023/11/20 07:40:31;;;;;;;27.77;4.30;;;10.60;99.90;;;;;;4980934;28;20049;-72
2023/11/20 07:42:56;;;;;;;25.40;4.07;;;10.50;99.90;;;;;;4992805;28;20038;-73
2023/11/20 07:45:23;;;;;;;25.92;4.03;;;10.50;99.90;;;;;;4974030;28;20177;-72
2023/11/20 07:47:50;;;;;;;23.50;3.97;;;10.50;99.90;;;;;;4959560;28;20061;-72
2023/11/20 07:50:16;;;;;;;24.13;4.32;;;10.50;99.90;;;;;;4976320;28;20466;-72
2023/11/20 07:52:42;;;;;;;27.42;3.83;;;10.60;99.90;;;;;;4970817;28;20042;-73
2023/11/20 07:55:08;;;;;;;19.60;3.50;;;10.60;99.90;;;;;;4992321;28;20074;-74
2023/11/20 07:57:34;;;;;;;21.77;3.03;;;10.60;99.90;;;;;;4992674;28;20049;-74
2023/11/20 08:00:00;;;;;;;22.73;3.88;;;10.60;99.90;;;;;;4994521;28;20085;-74
2023/11/20 08:02:26;;;;;;;15.90;3.08;;;10.60;99.90;;;;;;4989880;28;20069;-73
2023/11/20 08:04:56;;;;;;;20.58;3.72;;;10.60;99.90;;;;;;4978026;28;20121;-73
2023/11/20 08:07:21;;;;;;;26.33;3.55;;;10.50;99.90;;;;;;4994780;28;20061;-73
2023/11/20 08:09:47;;;;;;;23.58;3.60;;;10.50;99.90;;;;;;4984756;28;20084;-73
2023/11/20 08:12:12;;;;;;;20.88;3.30;;;10.50;99.90;;;;;;4995732;28;20041;-72
2023/11/20 08:14:38;;;;;;;21.10;4.05;;;10.50;99.90;;;;;;4993722;28;20046;-72
2023/11/20 08:17:04;;;;;;;23.20;3.63;;;10.50;99.90;;;;;;4987474;28;20042;-73
2023/11/20 08:19:32;;;;;;;20.35;3.30;;;10.50;99.90;;;;;;4970545;28;20565;-73
2023/11/20 08:21:58;;;;;;;29.67;3.53;;;10.50;99.90;;;;;;4999065;28;20046;-72
2023/11/20 08:24:23;;;;;;;23.60;3.63;;;10.50;99.90;;;;;;4976664;28;20046;-72
2023/11/20 08:26:49;;;;;;;23.38;3.45;;;10.50;99.90;;;;;;4977632;28;20522;-72
2023/11/20 08:29:16;;;;;;;15.63;3.00;;;10.60;99.90;;;;;;4962638;28;20399;-72
2023/11/20 08:31:47;;;;;;;28.98;4.00;;;10.60;99.90;;;;;;4973300;28;20046;-72
2023/11/20 08:34:14;;;;;;;33.63;4.28;;;10.60;99.90;;;;;;4978953;28;20066;-72
2023/11/20 08:36:39;;;;;;;24.25;3.83;;;10.60;99.90;;;;;;4993959;28;20049;-73
2023/11/20 08:39:11;;;;;;;21.10;3.95;;;10.60;99.90;;;;;;4992750;28;20407;-72
2023/11/20 08:41:38;;;;;;;25.38;3.70;;;10.60;99.90;;;;;;4981380;28;20068;-72
2023/11/20 08:44:04;;;;;;;22.75;3.60;;;10.60;99.90;;;;;;4976971;28;20048;-73
2023/11/20 08:46:30;;;;;;;24.15;4.10;;;10.60;99.90;;;;;;4993328;28;20057;-72
2023/11/20 08:48:55;;;;;;;23.48;3.88;;;10.70;99.90;;;;;;4998831;28;20121;-74
2023/11/20 08:51:21;;;;;;;21.42;3.65;;;10.70;99.90;;;;;;4976498;28;20062;-72
2023/11/20 08:53:46;;;;;;;24.08;4.38;;;10.70;99.90;;;;;;4964818;28;20046;-72
2023/11/20 08:56:12;;;;;;;28.15;4.75;;;10.80;99.90;;;;;;4983752;28;20515;-72
2023/11/20 08:58:38;;;;;;;19.75;3.25;;;10.80;99.90;;;;;;4998273;28;20037;-73
2023/11/20 09:01:04;;;;;;;30.90;4.53;;;10.80;99.90;;;;;;4978203;28;20030;-72
2023/11/20 09:03:30;;;;;;;20.55;3.50;;;10.90;99.90;;;;;;4995905;28;20042;-72
2023/11/20 09:05:58;;;;;;;20.00;3.53;;;10.90;99.90;;;;;;4961415;28;20129;-72
2023/11/20 09:08:24;;;;;;;22.88;3.80;;;11.00;99.90;;;;;;4974997;28;20121;-73
2023/11/20 09:10:49;;;;;;;22.45;3.40;;;11.00;99.90;;;;;;4978347;28;20128;-72
2023/11/20 09:13:15;;;;;;;19.42;4.25;;;11.00;99.90;;;;;;4944745;28;20419;-72
2023/11/20 09:15:41;;;;;;;23.00;4.45;;;11.00;99.90;;;;;;4996431;28;20056;-73
2023/11/20 09:18:07;;;;;;;25.95;4.53;;;11.00;99.90;;;;;;4998974;28;20042;-72
2023/11/20 09:20:34;;;;;;;22.17;3.67;;;11.10;99.90;;;;;;4994457;28;20042;-73
2023/11/20 09:23:00;;;;;;;22.77;3.88;;;11.10;99.90;;;;;;4964256;28;20042;-73
2023/11/20 09:25:26;;;;;;;22.90;3.72;;;11.10;99.90;;;;;;4958996;28;20046;-72
2023/11/20 09:27:51;;;;;;;25.88;4.00;;;11.20;99.90;;;;;;4976193;28;20040;-73
2023/11/20 09:30:17;;;;;;;21.25;4.38;;;11.20;99.90;;;;;;4970693;28;20077;-72
2023/11/20 09:32:44;;;;;;;24.00;4.32;;;11.20;99.90;;;;;;4961725;28;20507;-72
2023/11/20 09:35:15;;;;;;;20.67;3.67;;;11.20;99.90;;;;;;4977702;28;20047;-72
2023/11/20 09:37:42;;;;;;;25.13;3.72;;;11.20;99.90;;;;;;4974343;28;20050;-72
2023/11/20 09:40:08;;;;;;;15.98;3.30;;;11.20;99.90;;;;;;4978238;28;20459;-72
2023/11/20 09:42:35;;;;;;;23.58;3.65;;;11.20;99.90;;;;;;4976463;28;20042;-73
2023/11/20 09:45:03;;;;;;;24.95;3.92;;;11.20;99.90;;;;;;4979535;28;20050;-72
2023/11/20 09:47:30;;;;;;;18.90;3.75;;;11.20;99.90;;;;;;4980114;28;20112;-73
2023/11/20 09:49:56;;;;;;;22.15;3.92;;;11.20;99.90;;;;;;4978675;28;20053;-73
2023/11/20 09:52:26;;;;;;;19.85;3.88;;;11.10;99.90;;;;;;4970237;28;20054;-72
2023/11/20 09:54:55;;;;;;;25.77;4.28;;;11.10;99.90;;;;;;4991105;28;20038;-72
2023/11/20 09:57:25;;;;;;;29.42;4.35;;;11.20;99.90;;;;;;4979294;28;20515;-72
2023/11/20 09:59:53;;;;;;;25.33;4.60;;;11.10;99.90;;;;;;4993639;28;20522;-73
2023/11/20 10:02:20;;;;;;;24.10;4.18;;;11.10;99.90;;;;;;4976280;28;20038;-72
2023/11/20 10:04:51;;;;;;;23.60;4.00;;;11.10;99.90;;;;;;4997711;28;20078;-72
2023/11/20 10:07:17;;;;;;;24.13;4.35;;;11.10;99.90;;;;;;4998266;28;20034;-72
2023/11/20 10:09:47;;;;;;;25.10;4.50;;;11.00;99.90;;;;;;4977456;28;20100;-72
2023/11/20 10:12:14;;;;;;;26.48;4.22;;;11.10;99.90;;;;;;4995277;28;20387;-72
2023/11/20 10:14:43;;;;;;;22.98;4.30;;;11.10;99.90;;;;;;4975312;28;20491;-73
2023/11/20 10:17:11;;;;;;;23.85;4.05;;;11.00;99.90;;;;;;4975700;28;20046;-72
2023/11/20 10:19:37;;;;;;;22.98;4.40;;;11.00;99.90;;;;;;4970681;28;20042;-72
2023/11/20 10:22:06;;;;;;;30.25;4.35;;;10.90;99.90;;;;;;4988996;28;20046;-72
2023/11/20 10:24:32;;;;;;;30.58;4.45;;;10.80;99.90;;;;;;4974484;28;20044;-72
2023/11/20 10:27:03;;;;;;;21.55;4.30;;;10.80;99.90;;;;;;4973517;28;20133;-72
2023/11/20 10:29:28;;;;;;;23.23;4.07;;;10.80;99.90;;;;;;4979964;28;20073;-73
2023/11/20 10:31:57;;;;;;;31.60;5.45;;;10.70;99.90;;;;;;4992818;28;20515;-73
2023/11/20 10:34:23;;;;;;;25.58;4.55;;;10.70;99.90;;;;;;5003379;28;20038;-73
2023/11/20 10:37:06;;;;;;;30.83;4.50;;;10.70;99.90;;;;;;4999320;28;20546;-72
2023/11/20 10:39:35;;;;;;;27.83;5.20;;;10.70;99.90;;;;;;4979946;28;20041;-73
2023/11/20 10:42:01;;;;;;;31.33;4.45;;;10.70;99.90;;;;;;4995426;28;20034;-73
2023/11/20 10:44:27;;;;;;;29.20;4.90;;;10.70;99.90;;;;;;4998220;28;20101;-73
2023/11/20 10:46:53;;;;;;;27.88;4.70;;;10.60;99.90;;;;;;4994958;28;20492;-73
2023/11/20 10:49:21;;;;;;;26.52;4.53;;;10.60;99.90;;;;;;4978602;28;20060;-73
2023/11/20 10:51:55;;;;;;;29.33;4.15;;;10.60;99.90;;;;;;4997835;28;20076;-72
2023/11/20 10:54:32;;;;;;;28.67;5.80;;;10.60;99.90;;;;;;4996992;28;20073;-72
2023/11/20 10:57:05;;;;;;;26.13;5.10;;;10.60;99.90;;;;;;4982878;28;20045;-73
2023/11/20 10:59:35;;;;;;;27.70;4.88;;;10.60;99.90;;;;;;5000979;28;20034;-72
2023/11/20 11:02:06;;;;;;;28.15;5.00;;;10.60;99.90;;;;;;4981183;28;20046;-72
2023/11/20 11:04:33;;;;;;;23.95;4.90;;;10.60;99.90;;;;;;4977459;28;20074;-72
2023/11/20 11:07:01;;;;;;;33.30;4.85;;;10.60;99.90;;;;;;4978137;28;20098;-73
2023/11/20 11:09:30;;;;;;;30.25;5.03;;;10.70;99.90;;;;;;4977949;28;20037;-73
2023/11/20 11:12:00;;;;;;;26.52;4.57;;;10.70;99.90;;;;;;4993890;28;20038;-73
2023/11/20 11:14:25;;;;;;;29.85;4.63;;;10.80;99.90;;;;;;4995072;28;20042;-72
2023/11/20 11:17:10;;;;;;;33.30;5.22;;;10.80;99.90;;;;;;4995137;28;20092;-73
2023/11/20 11:19:44;;;;;;;25.63;4.60;;;10.90;99.90;;;;;;4972964;28;20215;-73
2023/11/20 11:22:15;;;;;;;22.33;4.57;;;10.90;99.90;;;;;;4976993;28;20054;-72
2023/11/20 11:24:46;;;;;;;22.52;4.20;;;11.00;99.90;;;;;;4977221;28;20124;-73
2023/11/20 11:27:21;;;;;;;28.13;4.97;;;11.10;99.90;;;;;;4978092;28;20796;-73
2023/11/20 11:29:58;;;;;;;25.70;3.70;;;10.90;99.90;;;;;;4975004;28;20046;-73
2023/11/20 11:32:58;;;;;;;24.73;5.20;;;11.10;99.90;;;;;;4977516;28;20042;-72
2023/11/20 11:35:49;;;;;;;33.80;4.45;;;10.90;99.90;;;;;;4994157;28;20042;-72
2023/11/20 11:38:38;;;;;;;22.33;4.95;;;10.90;99.90;;;;;;4972109;28;20085;-72
2023/11/20 11:41:46;;;;;;;33.10;4.63;;;10.90;99.90;;;;;;4935196;28;20054;-72
2023/11/20 11:44:15;;;;;;;24.80;4.50;;;10.90;99.90;;;;;;4975464;28;20105;-73
2023/11/20 11:46:43;;;;;;;19.90;3.80;;;10.80;99.90;;;;;;4993889;28;20060;-73
2023/11/20 11:49:24;;;;;;;26.10;3.58;;;10.80;99.90;;;;;;4998095;28;20038;-72
2023/11/20 11:51:57;;;;;;;20.10;4.10;;;10.80;99.90;;;;;;4970893;28;20218;-72
2023/11/20 11:54:24;;;;;;;21.73;3.70;;;10.80;99.90;;;;;;4977560;28;20050;-72
2023/11/20 11:57:25;;;;;;;21.20;3.97;;;10.70;99.90;;;;;;4978562;28;20399;-72
2023/11/20 11:59:53;;;;;;;22.02;3.58;;;10.70;99.90;;;;;;4973874;28;20476;-72
2023/11/20 12:02:47;;;;;;;23.50;4.07;;;10.60;99.90;;;;;;4994068;28;20042;-72
2023/11/20 12:05:17;;;;;;;17.60;3.30;;;10.60;99.90;;;;;;4974497;28;20133;-72
2023/11/20 12:07:54;;;;;;;14.60;4.10;;;10.60;99.90;;;;;;4995865;28;20038;-72
2023/11/20 12:10:56;;;;;;;21.20;3.78;;;10.60;99.90;;;;;;4997205;28;20529;-72
2023/11/20 12:13:23;;;;;;;19.17;4.25;;;10.80;99.90;;;;;;4946261;29;20106;-73
2023/11/20 12:16:03;;;;;;;21.23;4.47;;;10.60;99.90;;;;;;4980104;28;20196;-72
2023/11/20 12:18:33;;;;;;;23.42;4.30;;;10.60;99.90;;;;;;4977146;28;20053;-72
2023/11/20 12:21:07;;;;;;;26.30;4.82;;;10.70;99.90;;;;;;4976877;28;20046;-73
2023/11/20 12:23:43;;;;;;;28.40;5.55;;;10.70;99.90;;;;;;4966636;28;20488;-72
2023/11/20 12:26:11;;;;;;;19.13;4.53;;;10.80;99.90;;;;;;4961707;28;20048;-72
2023/11/20 12:28:38;;;;;;;25.45;5.18;;;10.70;99.90;;;;;;4984194;28;20120;-73
2023/11/20 12:31:05;;;;;;;23.80;4.75;;;10.70;99.90;;;;;;4953923;28;20109;-72
2023/11/20 12:33:41;;;;;;;26.48;4.28;;;10.70;99.90;;;;;;4975885;28;20479;-72
2023/11/20 12:36:08;;;;;;;25.75;4.10;;;10.70;99.90;;;;;;4963004;28;20042;-72
2023/11/20 12:38:36;;;;;;;21.30;4.10;;;10.70;99.90;;;;;;4979322;28;20077;-72
2023/11/20 12:41:06;;;;;;;23.90;4.30;;;10.70;99.90;;;;;;4976292;28;20701;-72